createdAt,value
2022-10-18T00:00:44.636Z,1104
2022-10-18T00:01:57.050Z,1103
2022-10-18T00:03:00.663Z,1104
2022-10-18T00:04:13.119Z,1105
2022-10-18T00:05:26.682Z,1100
2022-10-18T00:06:29.166Z,1100
2022-10-18T00:07:42.161Z,1100
2022-10-18T00:08:54.545Z,1099
2022-10-18T00:10:07.912Z,1098
2022-10-18T00:11:10.365Z,1095
2022-10-18T00:12:43.181Z,1096
2022-10-18T00:13:35.774Z,1092
2022-10-18T00:14:38.217Z,1092
2022-10-18T00:15:52.173Z,1090
2022-10-18T00:17:04.553Z,1090
2022-10-18T00:18:17.662Z,1090
2022-10-18T00:19:20.086Z,1089
2022-10-18T00:20:33.138Z,1085
2022-10-18T00:21:46.486Z,1085
2022-10-18T00:22:49.682Z,1083
2022-10-18T00:24:02.065Z,1085
2022-10-18T00:25:15.151Z,1086
2022-10-18T00:26:17.613Z,1087
2022-10-18T00:27:30.829Z,1086
2022-10-18T00:28:43.316Z,1088
2022-10-18T00:29:56.663Z,1087
2022-10-18T00:31:19.015Z,1086
2022-10-18T00:32:12.187Z,1085
2022-10-18T00:33:34.504Z,1086
2022-10-18T00:34:27.639Z,1085
2022-10-18T00:35:39.991Z,1082
2022-10-18T00:36:53.202Z,1081
2022-10-18T00:38:05.645Z,1080
2022-10-18T00:39:09.196Z,1078
2022-10-18T00:40:21.596Z,1076
2022-10-18T00:41:35.159Z,1077
2022-10-18T00:42:37.628Z,1077
2022-10-18T00:43:50.673Z,1078
2022-10-18T00:45:03.051Z,1077
2022-10-18T00:46:16.225Z,1078
2022-10-18T00:47:18.696Z,1078
2022-10-18T00:48:31.671Z,1078
2022-10-18T00:50:04.069Z,1078
2022-10-18T00:50:47.638Z,1078
2022-10-18T00:52:00.181Z,1079
2022-10-18T00:53:13.668Z,1078
2022-10-18T00:54:16.246Z,1078
2022-10-18T00:55:29.659Z,1076
2022-10-18T00:56:42.137Z,1077
2022-10-18T00:58:57.402Z,1075
2022-10-18T01:00:10.641Z,1073
2022-10-18T01:01:25.811Z,1074
2022-10-18T01:02:31.924Z,1077
2022-10-18T01:03:34.607Z,1079
2022-10-18T01:04:47.662Z,1082
2022-10-18T01:06:00.072Z,1082
2022-10-18T01:07:13.174Z,1081
2022-10-18T01:08:15.890Z,1080
2022-10-18T01:09:29.160Z,1079
2022-10-18T01:10:41.559Z,1078
2022-10-18T01:11:54.678Z,1075
2022-10-18T01:12:57.170Z,1076
2022-10-18T01:14:30.175Z,1079
2022-10-18T01:15:22.750Z,1077
2022-10-18T01:16:25.242Z,1079
2022-10-18T01:17:39.089Z,1079
2022-10-18T01:18:51.691Z,1076
2022-10-18T01:20:04.778Z,1075
2022-10-18T01:21:07.279Z,1076
2022-10-18T01:22:20.669Z,1072
2022-10-18T01:23:33.064Z,1071
2022-10-18T01:24:36.348Z,1072
2022-10-18T01:25:48.743Z,1075
2022-10-18T01:27:02.184Z,1075
2022-10-18T01:28:04.709Z,1075
2022-10-18T01:29:18.336Z,1077
2022-10-18T01:30:30.733Z,1075
2022-10-18T01:31:44.179Z,1075
2022-10-18T01:32:46.649Z,1076
2022-10-18T01:33:59.689Z,1076
2022-10-18T01:35:12.087Z,1077
2022-10-18T01:36:15.307Z,1075
2022-10-18T01:37:27.941Z,1078
2022-10-18T01:38:41.672Z,1079
2022-10-18T01:39:54.169Z,1079
2022-10-18T01:40:57.668Z,1080
2022-10-18T01:42:10.163Z,1079
2022-10-18T01:43:23.181Z,1081
2022-10-18T01:44:25.673Z,1080
2022-10-18T01:45:39.182Z,1079
2022-10-18T01:46:51.623Z,1076
2022-10-18T01:47:54.702Z,1075
2022-10-18T01:49:07.207Z,1073
2022-10-18T01:50:20.149Z,1075
2022-10-18T01:51:32.618Z,1077
2022-10-18T01:52:36.172Z,1076
2022-10-18T01:53:48.599Z,1075
2022-10-18T01:55:01.646Z,1076
2022-10-18T01:56:04.117Z,1076
2022-10-18T01:57:17.188Z,1072
2022-10-18T01:58:29.619Z,1070
2022-10-18T01:59:42.698Z,1072
2022-10-18T02:00:45.167Z,1071
2022-10-18T02:01:58.173Z,1074
2022-10-18T02:03:10.575Z,1076
2022-10-18T02:04:23.669Z,1077
2022-10-18T02:05:26.253Z,1080
2022-10-18T02:06:39.792Z,1083
2022-10-18T02:08:00.321Z,1084
2022-10-18T02:09:02.677Z,1084
2022-10-18T02:10:05.193Z,1085
2022-10-18T02:11:18.680Z,1085
2022-10-18T02:12:31.397Z,1085
2022-10-18T02:13:34.689Z,1087
2022-10-18T02:14:47.203Z,1088
2022-10-18T02:16:01.214Z,1087
2022-10-18T02:17:13.634Z,1087
2022-10-18T02:18:17.491Z,1089
2022-10-18T02:19:29.903Z,1090
2022-10-18T02:20:43.204Z,1092
2022-10-18T02:21:45.679Z,1090
2022-10-18T02:22:58.679Z,1092
2022-10-18T02:24:11.083Z,1090
2022-10-18T02:25:24.187Z,1090
2022-10-18T02:26:26.683Z,1090
2022-10-18T02:27:39.666Z,1087
2022-10-18T02:28:52.045Z,1086
2022-10-18T02:29:55.172Z,1084
2022-10-18T02:31:07.559Z,1085
2022-10-18T02:32:20.672Z,1084
2022-10-18T02:33:33.072Z,1086
2022-10-18T02:34:36.173Z,1088
2022-10-18T02:35:58.506Z,1089
2022-10-18T02:37:01.688Z,1089
2022-10-18T02:38:04.189Z,1090
2022-10-18T02:39:17.194Z,1091
2022-10-18T02:40:29.665Z,1093
2022-10-18T02:41:42.688Z,1093
2022-10-18T02:42:45.156Z,1093
2022-10-18T02:43:58.205Z,1094
2022-10-18T02:45:10.601Z,1090
2022-10-18T02:46:23.731Z,1090
2022-10-18T02:47:26.301Z,1087
2022-10-18T02:48:39.684Z,1088
2022-10-18T02:49:52.144Z,1090
2022-10-18T02:50:55.708Z,1088
2022-10-18T02:52:08.094Z,1092
2022-10-18T02:53:21.198Z,1092
2022-10-18T02:54:23.694Z,1091
2022-10-18T02:55:36.695Z,1090
2022-10-18T02:56:49.099Z,1091
2022-10-18T02:58:02.208Z,1087
2022-10-18T02:59:04.699Z,1090
2022-10-18T03:00:17.694Z,1087
2022-10-18T03:01:30.221Z,1088
2022-10-18T03:02:43.692Z,1088
2022-10-18T03:03:46.194Z,1086
2022-10-18T03:04:59.307Z,1087
2022-10-18T03:06:11.720Z,1087
2022-10-18T03:07:15.208Z,1086
2022-10-18T03:08:27.612Z,1089
2022-10-18T03:09:40.704Z,1090
2022-10-18T03:10:43.248Z,1088
2022-10-18T03:11:56.202Z,1089
2022-10-18T03:13:08.578Z,1088
2022-10-18T03:14:21.692Z,1090
2022-10-18T03:15:24.258Z,1091
2022-10-18T03:16:37.985Z,1094
2022-10-18T03:17:50.349Z,1091
2022-10-18T03:18:53.678Z,1094
2022-10-18T03:20:06.134Z,1094
2022-10-18T03:21:19.173Z,1096
2022-10-18T03:22:31.885Z,1096
2022-10-18T03:23:35.267Z,1099
2022-10-18T03:24:47.767Z,1101
2022-10-18T03:26:01.221Z,1102
2022-10-18T03:27:03.757Z,1101
2022-10-18T03:28:16.680Z,1100
2022-10-18T03:29:29.266Z,1103
2022-10-18T03:30:42.716Z,1103
2022-10-18T03:31:45.224Z,1103
2022-10-18T03:32:58.254Z,1105
2022-10-18T03:34:10.656Z,1103
2022-10-18T03:35:14.230Z,1105
2022-10-18T03:36:26.652Z,1104
2022-10-18T03:37:39.710Z,1103
2022-10-18T03:38:52.162Z,1103
2022-10-18T03:39:55.195Z,1104
2022-10-18T03:41:07.598Z,1107
2022-10-18T03:42:20.678Z,1106
2022-10-18T03:43:23.177Z,1104
2022-10-18T03:44:36.232Z,1106
2022-10-18T03:45:48.690Z,1106
2022-10-18T03:47:02.248Z,1106
2022-10-18T03:48:04.749Z,1106
2022-10-18T03:49:18.347Z,1106
2022-10-18T03:50:32.078Z,1108
2022-10-18T03:51:35.503Z,1106
2022-10-18T03:52:47.900Z,1106
2022-10-18T03:54:01.378Z,1107
2022-10-18T03:55:03.859Z,1107
2022-10-18T03:56:17.361Z,1106
2022-10-18T03:57:29.963Z,1108
2022-10-18T03:59:46.417Z,1107
2022-10-18T04:00:59.714Z,1107
2022-10-18T04:02:12.111Z,1109
2022-10-18T04:03:15.228Z,1110
2022-10-18T04:04:27.631Z,1110
2022-10-18T04:05:40.696Z,1108
2022-10-18T04:06:43.336Z,1107
2022-10-18T04:07:57.200Z,1107
2022-10-18T04:09:10.355Z,1109
2022-10-18T04:10:13.732Z,1111
2022-10-18T04:11:26.143Z,1106
2022-10-18T04:12:39.198Z,1108
2022-10-18T04:14:11.478Z,1110
2022-10-18T04:14:55.722Z,1109
2022-10-18T04:16:08.329Z,1109
2022-10-18T04:17:21.714Z,1109
2022-10-18T04:18:24.188Z,1108
2022-10-18T04:19:37.229Z,1110
2022-10-18T04:20:49.632Z,1111
2022-10-18T04:22:02.724Z,1112
2022-10-18T04:23:05.208Z,1115
2022-10-18T04:24:18.238Z,1116
2022-10-18T04:25:30.682Z,1119
2022-10-18T04:26:34.197Z,1125
2022-10-18T04:28:06.454Z,1134
2022-10-18T04:28:59.839Z,1145
2022-10-18T04:30:02.470Z,1153
2022-10-18T04:31:15.703Z,1173
2022-10-18T04:32:28.091Z,1186
2022-10-18T04:33:41.233Z,1208
2022-10-18T04:35:56.733Z,1261
2022-10-18T04:37:09.133Z,1281
2022-10-18T04:38:22.230Z,1287
2022-10-18T04:39:24.713Z,1290
2022-10-18T04:40:37.716Z,1293
2022-10-18T04:41:50.123Z,1299
2022-10-18T04:42:53.217Z,1305
2022-10-18T04:44:05.614Z,1309
2022-10-18T04:45:18.706Z,1312
2022-10-18T04:46:31.170Z,1320
2022-10-18T04:47:35.024Z,1329
2022-10-18T04:48:47.561Z,1331
2022-10-18T04:50:00.722Z,1334
2022-10-18T04:51:03.218Z,1339
2022-10-18T04:52:16.212Z,1339
2022-10-18T04:53:28.795Z,1335
2022-10-18T04:54:42.260Z,1339
2022-10-18T04:56:04.619Z,1344
2022-10-18T04:56:58.207Z,1345
2022-10-18T04:58:10.609Z,1350
2022-10-18T04:59:13.718Z,1356
2022-10-18T05:00:26.104Z,1366
2022-10-18T05:02:29.507Z,1384
2022-10-18T05:03:12.522Z,1496
2022-10-18T05:03:55.127Z,1580
2022-10-18T05:05:10.416Z,1657
2022-10-18T05:06:15.766Z,1657
2022-10-18T05:07:28.702Z,1656
2022-10-18T05:08:41.090Z,1662
2022-10-18T05:09:44.218Z,1659
2022-10-18T05:10:56.674Z,1645
2022-10-18T05:12:09.775Z,1617
2022-10-18T05:14:21.478Z,1587
2022-10-18T05:14:24.575Z,1543
2022-10-18T05:15:36.726Z,1484
2022-10-18T05:16:49.715Z,1448
2022-10-18T05:17:52.108Z,1431
2022-10-18T05:19:14.752Z,1423
2022-10-18T05:20:17.045Z,1402
2022-10-18T05:21:29.761Z,1381
2022-10-18T05:22:32.199Z,1350
2022-10-18T05:23:55.246Z,1269
2022-10-18T05:24:57.592Z,1272
2022-10-18T05:26:10.736Z,1256
2022-10-18T05:27:13.070Z,1253
2022-10-18T05:28:39.267Z,1254
2022-10-18T05:29:32.810Z,1251
2022-10-18T05:30:45.755Z,1247
2022-10-18T05:31:58.075Z,1245
2022-10-18T05:33:01.209Z,1245
2022-10-18T05:34:13.505Z,1240
2022-10-18T05:35:26.744Z,1237
2022-10-18T05:36:39.036Z,1239
2022-10-18T05:37:42.232Z,1239
2022-10-18T05:38:54.552Z,1238
2022-10-18T05:40:07.729Z,1240
2022-10-18T05:41:10.173Z,1239
2022-10-18T05:42:23.214Z,1237
2022-10-18T05:43:35.581Z,1240
2022-10-18T05:44:48.762Z,1240
2022-10-18T05:45:51.187Z,1238
2022-10-18T05:47:04.757Z,1235
2022-10-18T05:48:17.097Z,1235
2022-10-18T05:49:20.254Z,1234
2022-10-18T05:50:36.632Z,1233
2022-10-18T05:51:42.773Z,1233
2022-10-18T05:52:56.980Z,1239
2022-10-18T05:54:02.768Z,1239
2022-10-18T05:55:15.109Z,1243
2022-10-18T05:56:28.305Z,1239
2022-10-18T05:57:31.123Z,1240
2022-10-18T05:58:44.762Z,1236
2022-10-18T05:59:57.190Z,1236
2022-10-18T06:01:00.240Z,1237
2022-10-18T06:02:12.668Z,1238
2022-10-18T06:03:35.765Z,1236
2022-10-18T06:04:38.218Z,1235
2022-10-18T06:05:41.740Z,1237
2022-10-18T06:06:54.082Z,1232
2022-10-18T06:08:10.216Z,1230
2022-10-18T06:09:13.065Z,1229
2022-10-18T06:10:26.328Z,1229
2022-10-18T06:11:28.856Z,1226
2022-10-18T06:12:42.225Z,1224
2022-10-18T06:13:54.561Z,1223
2022-10-18T06:15:07.755Z,1220
2022-10-18T06:16:10.225Z,1218
2022-10-18T06:17:23.227Z,1218
2022-10-18T06:18:35.609Z,1216
2022-10-18T06:19:38.780Z,1217
2022-10-18T06:20:51.159Z,1217
2022-10-18T06:22:04.232Z,1217
2022-10-18T06:23:16.601Z,1219
2022-10-18T06:24:19.725Z,1218
2022-10-18T06:25:32.108Z,1217
2022-10-18T06:26:45.281Z,1219
2022-10-18T06:27:47.726Z,1220
2022-10-18T06:29:00.804Z,1220
2022-10-18T06:30:13.323Z,1215
2022-10-18T06:31:26.261Z,1215
2022-10-18T06:32:28.712Z,1211
2022-10-18T06:33:41.731Z,1217
2022-10-18T06:34:54.087Z,1221
2022-10-18T06:36:07.259Z,1227
2022-10-18T06:37:09.666Z,1227
2022-10-18T06:38:22.754Z,1222
2022-10-18T06:39:35.070Z,1217
2022-10-18T06:40:38.333Z,1206
2022-10-18T06:41:50.600Z,1196
2022-10-18T06:43:19.473Z,1152
2022-10-18T06:44:12.959Z,1075
2022-10-18T06:45:25.771Z,972
2022-10-18T06:46:28.117Z,937
2022-10-18T06:47:41.266Z,934
2022-10-18T06:48:53.396Z,926
2022-10-18T06:50:06.230Z,915
2022-10-18T06:51:08.487Z,896
2022-10-18T06:52:21.293Z,883
2022-10-18T06:53:33.457Z,874
2022-10-18T06:54:46.269Z,865
2022-10-18T06:55:48.548Z,859
2022-10-18T06:57:01.756Z,845
2022-10-18T06:58:13.997Z,833
2022-10-18T06:59:17.340Z,813
2022-10-18T07:00:29.535Z,764
2022-10-18T07:01:42.327Z,736
2022-10-18T07:02:54.446Z,733
2022-10-18T07:03:57.263Z,725
2022-10-18T07:05:09.495Z,707
2022-10-18T07:06:22.275Z,700
2022-10-18T07:07:35.114Z,686
2022-10-18T07:08:38.269Z,679
2022-10-18T07:09:50.356Z,673
2022-10-18T07:11:03.286Z,668
2022-10-18T07:12:05.590Z,666
2022-10-18T07:13:32.063Z,662
2022-10-18T07:14:28.868Z,657
2022-10-18T07:15:42.265Z,652
2022-10-18T07:16:44.524Z,647
2022-10-18T07:17:57.270Z,643
2022-10-18T07:19:09.406Z,637
2022-10-18T07:20:22.381Z,630
2022-10-18T07:21:24.674Z,619
2022-10-18T07:22:37.766Z,607
2022-10-18T07:23:49.900Z,602
2022-10-18T07:25:03.280Z,595
2022-10-18T07:26:05.477Z,590
2022-10-18T07:27:18.283Z,585
2022-10-18T07:28:30.543Z,582
2022-10-18T07:29:33.764Z,578
2022-10-18T07:30:45.930Z,577
2022-10-18T07:31:58.754Z,574
2022-10-18T07:33:10.834Z,572
2022-10-18T07:34:23.816Z,570
2022-10-18T07:35:26.028Z,570
2022-10-18T07:36:38.781Z,574
2022-10-18T07:37:50.920Z,569
2022-10-18T07:38:53.765Z,567
2022-10-18T07:40:05.898Z,570
2022-10-18T07:41:18.850Z,572
2022-10-18T07:42:21.047Z,574
2022-10-18T07:43:33.749Z,576
2022-10-18T07:44:45.885Z,579
2022-10-18T07:45:58.760Z,583
2022-10-18T07:47:00.943Z,585
2022-10-18T07:48:13.771Z,590
2022-10-18T07:49:25.823Z,596
2022-10-18T07:50:38.771Z,602
2022-10-18T07:51:41.033Z,608
2022-10-18T07:52:53.782Z,615
2022-10-18T07:54:05.902Z,623
2022-10-18T07:55:18.785Z,634
2022-10-18T07:56:21.422Z,637
2022-10-18T07:57:35.227Z,644
2022-10-18T07:58:47.674Z,650
2022-10-18T07:59:50.819Z,657
2022-10-18T08:01:02.924Z,661
2022-10-18T08:02:15.805Z,668
2022-10-18T08:03:27.846Z,675
2022-10-18T08:04:30.793Z,678
2022-10-18T08:05:42.872Z,677
2022-10-18T08:06:55.793Z,681
2022-10-18T08:08:08.172Z,682
2022-10-18T08:09:11.785Z,687
2022-10-18T08:10:23.810Z,690
2022-10-18T08:11:36.814Z,695
2022-10-18T08:12:38.967Z,699
2022-10-18T08:13:51.782Z,700
2022-10-18T08:15:03.852Z,703
2022-10-18T08:16:16.799Z,706
2022-10-18T08:17:19.003Z,710
2022-10-18T08:18:31.811Z,713
2022-10-18T08:19:52.891Z,715
2022-10-18T08:20:48.309Z,717
2022-10-18T08:22:00.344Z,723
2022-10-18T08:23:13.297Z,727
2022-10-18T08:24:25.337Z,731
2022-10-18T08:25:28.365Z,737
2022-10-18T08:26:40.569Z,740
2022-10-18T08:27:53.310Z,743
2022-10-18T08:29:10.231Z,746
2022-10-18T08:30:13.787Z,749
2022-10-18T08:31:15.963Z,749
2022-10-18T08:32:28.813Z,755
2022-10-18T08:33:40.664Z,760
2022-10-18T08:34:53.320Z,765
2022-10-18T08:35:55.351Z,769
2022-10-18T08:37:08.300Z,774
2022-10-18T08:38:20.338Z,779
2022-10-18T08:39:33.277Z,783
2022-10-18T08:40:35.484Z,789
2022-10-18T08:41:48.290Z,793
2022-10-18T08:43:00.316Z,796
2022-10-18T08:44:13.311Z,799
2022-10-18T08:45:30.077Z,803
2022-10-18T08:46:30.778Z,806
2022-10-18T08:47:33.373Z,811
2022-10-18T08:48:46.834Z,815
2022-10-18T08:49:58.787Z,818
2022-10-18T08:51:11.788Z,822
2022-10-18T08:52:13.975Z,823
2022-10-18T08:53:26.796Z,826
2022-10-18T08:54:38.805Z,827
2022-10-18T08:55:51.815Z,832
2022-10-18T08:56:53.977Z,835
2022-10-18T08:58:06.831Z,834
2022-10-18T08:59:22.051Z,840
2022-10-18T09:00:27.795Z,844
2022-10-18T09:01:39.874Z,851
2022-10-18T09:02:43.330Z,857
2022-10-18T09:03:55.271Z,860
2022-10-18T09:05:08.278Z,864
2022-10-18T09:06:10.445Z,866
2022-10-18T09:07:23.328Z,868
2022-10-18T09:08:35.338Z,871
2022-10-18T09:09:48.322Z,873
2022-10-18T09:10:50.444Z,877
2022-10-18T09:12:03.309Z,882
2022-10-18T09:13:15.279Z,885
2022-10-18T09:14:28.369Z,888
2022-10-18T09:15:30.510Z,888
2022-10-18T09:16:43.298Z,892
2022-10-18T09:17:55.327Z,895
2022-10-18T09:19:08.287Z,895
2022-10-18T09:20:10.412Z,893
2022-10-18T09:21:23.332Z,885
2022-10-18T09:22:35.687Z,872
2022-10-18T09:23:39.602Z,842
2022-10-18T09:24:52.247Z,795
2022-10-18T09:25:58.833Z,754
2022-10-18T09:27:11.688Z,724
2022-10-18T09:28:24.537Z,704
2022-10-18T09:29:26.933Z,693
2022-10-18T09:30:39.814Z,683
2022-10-18T09:31:51.806Z,681
2022-10-18T09:33:04.810Z,677
2022-10-18T09:34:06.934Z,672
2022-10-18T09:35:19.912Z,665
2022-10-18T09:36:31.897Z,658
2022-10-18T09:37:44.908Z,653
2022-10-18T09:38:46.982Z,652
2022-10-18T09:39:59.806Z,650
2022-10-18T09:41:11.808Z,648
2022-10-18T09:42:24.316Z,647
2022-10-18T09:43:26.517Z,648
2022-10-18T09:44:39.318Z,646
2022-10-18T09:45:51.232Z,642
2022-10-18T09:47:03.811Z,638
2022-10-18T09:48:05.948Z,634
2022-10-18T09:49:18.852Z,629
2022-10-18T09:50:30.806Z,625
2022-10-18T09:51:33.855Z,622
2022-10-18T09:52:45.808Z,616
2022-10-18T09:53:58.383Z,611
2022-10-18T09:55:10.333Z,611
2022-10-18T09:56:13.350Z,608
2022-10-18T09:57:25.278Z,607
2022-10-18T09:58:37.853Z,607
2022-10-18T09:59:49.877Z,606
2022-10-18T10:00:52.818Z,604
2022-10-18T10:02:04.883Z,600
2022-10-18T10:03:17.859Z,597
2022-10-18T10:04:29.795Z,593
2022-10-18T10:05:32.825Z,591
2022-10-18T10:06:44.755Z,590
2022-10-18T10:07:57.313Z,589
2022-10-18T10:09:09.232Z,587
2022-10-18T10:10:11.851Z,584
2022-10-18T10:11:23.769Z,584
2022-10-18T10:12:36.441Z,583
2022-10-18T10:13:48.338Z,581
2022-10-18T10:14:51.333Z,580
2022-10-18T10:16:03.256Z,579
2022-10-18T10:17:15.824Z,576
2022-10-18T10:18:27.743Z,577
2022-10-18T10:19:30.837Z,578
2022-10-18T10:20:42.734Z,577
2022-10-18T10:21:55.439Z,577
2022-10-18T10:23:07.431Z,577
2022-10-18T10:24:10.376Z,577
2022-10-18T10:25:22.284Z,580
2022-10-18T10:26:34.885Z,583
2022-10-18T10:27:36.941Z,585
2022-10-18T10:28:49.901Z,587
2022-10-18T10:30:06.830Z,590
2022-10-18T10:31:09.834Z,589
2022-10-18T10:32:21.797Z,588
2022-10-18T10:33:34.333Z,592
2022-10-18T10:34:37.306Z,591
2022-10-18T10:35:53.843Z,588
2022-10-18T10:36:56.445Z,589
2022-10-18T10:38:09.320Z,590
2022-10-18T10:39:21.213Z,589
2022-10-18T10:40:33.840Z,590
2022-10-18T10:41:35.880Z,592
2022-10-18T10:42:48.339Z,596
2022-10-18T10:44:00.215Z,595
2022-10-18T10:45:12.832Z,596
2022-10-18T10:46:14.867Z,594
2022-10-18T10:47:27.327Z,595
2022-10-18T10:48:39.196Z,598
2022-10-18T10:49:51.852Z,597
2022-10-18T10:50:55.188Z,597
2022-10-18T10:52:15.429Z,601
2022-10-18T10:53:18.114Z,602
2022-10-18T10:54:30.845Z,602
2022-10-18T10:55:34.845Z,602
2022-10-18T10:56:48.327Z,604
2022-10-18T10:57:50.347Z,604
2022-10-18T10:59:02.903Z,605
2022-10-18T11:00:14.851Z,606
2022-10-18T11:01:27.355Z,607
2022-10-18T11:02:29.580Z,607
2022-10-18T11:03:42.433Z,608
2022-10-18T11:04:54.396Z,609
2022-10-18T11:06:06.858Z,609
2022-10-18T11:07:08.851Z,607
2022-10-18T11:08:23.932Z,608
2022-10-18T11:09:35.982Z,607
2022-10-18T11:10:38.871Z,606
2022-10-18T11:12:00.291Z,605
2022-10-18T11:13:02.850Z,608
2022-10-18T11:14:25.220Z,607
2022-10-18T11:15:18.852Z,608
2022-10-18T11:16:30.667Z,604
2022-10-18T11:17:43.425Z,605
2022-10-18T11:18:45.394Z,606
2022-10-18T11:19:57.831Z,611
2022-10-18T11:21:09.654Z,610
2022-10-18T11:22:22.351Z,611
2022-10-18T11:23:24.406Z,611
2022-10-18T11:24:36.875Z,609
2022-10-18T11:25:48.788Z,608
2022-10-18T11:27:01.491Z,603
2022-10-18T11:28:03.649Z,598
2022-10-18T11:29:16.355Z,592
2022-10-18T11:30:28.162Z,590
2022-10-18T11:31:40.857Z,584
2022-10-18T11:32:42.796Z,582
2022-10-18T11:34:08.874Z,577
2022-10-18T11:35:01.996Z,574
2022-10-18T11:36:14.393Z,570
2022-10-18T11:37:31.069Z,565
2022-10-18T11:38:35.372Z,560
2022-10-18T11:39:47.210Z,558
2022-10-18T11:40:49.910Z,554
2022-10-18T11:42:01.757Z,550
2022-10-18T11:43:14.377Z,545
2022-10-18T11:44:26.250Z,542
2022-10-18T11:45:31.771Z,542
2022-10-18T11:47:13.343Z,540
2022-10-18T11:47:56.406Z,542
2022-10-18T11:48:58.456Z,540
2022-10-18T11:50:11.421Z,542
2022-10-18T11:51:34.040Z,542
2022-10-18T11:52:31.880Z,545
2022-10-18T11:53:47.144Z,547
2022-10-18T11:54:52.364Z,550
2022-10-18T11:55:54.409Z,551
2022-10-18T11:57:07.422Z,554
2022-10-18T11:58:19.298Z,552
2022-10-18T11:59:32.370Z,551
2022-10-18T12:00:34.436Z,548
2022-10-18T12:01:46.876Z,545
2022-10-18T12:02:58.801Z,542
2022-10-18T12:04:11.371Z,540
2022-10-18T12:05:24.762Z,538
2022-10-18T12:06:27.862Z,538
2022-10-18T12:07:39.743Z,536
2022-10-18T12:08:42.369Z,535
2022-10-18T12:09:54.272Z,530
2022-10-18T12:11:07.093Z,528
2022-10-18T12:12:19.066Z,527
2022-10-18T12:13:21.878Z,524
2022-10-18T12:14:33.789Z,523
2022-10-18T12:15:46.394Z,520
2022-10-18T12:17:20.235Z,517
2022-10-18T12:18:01.884Z,514
2022-10-18T12:19:13.798Z,513
2022-10-18T12:20:26.382Z,511
2022-10-18T12:21:38.281Z,510
2022-10-18T12:22:41.391Z,507
2022-10-18T12:23:53.283Z,508
2022-10-18T12:25:05.894Z,505
2022-10-18T12:26:17.859Z,503
2022-10-18T12:27:20.879Z,503
2022-10-18T12:28:32.789Z,504
2022-10-18T12:29:48.040Z,505
2022-10-18T12:30:52.453Z,508
2022-10-18T12:32:05.396Z,507
2022-10-18T12:33:23.525Z,507
2022-10-18T12:34:21.385Z,505
2022-10-18T12:35:33.268Z,505
2022-10-18T12:36:45.889Z,505
2022-10-18T12:37:48.028Z,504
2022-10-18T12:39:00.872Z,503
2022-10-18T12:40:16.776Z,501
2022-10-18T12:41:21.373Z,499
2022-10-18T12:42:33.278Z,498
2022-10-18T12:43:35.880Z,496
2022-10-18T12:45:07.505Z,495
2022-10-18T12:46:00.396Z,493
2022-10-18T12:47:12.291Z,495
2022-10-18T12:48:15.433Z,492
2022-10-18T12:49:27.340Z,490
2022-10-18T12:50:39.915Z,488
2022-10-18T12:51:51.910Z,487
2022-10-18T12:52:54.888Z,488
2022-10-18T12:54:06.729Z,487
2022-10-18T12:55:19.409Z,483
2022-10-18T12:56:31.334Z,482
2022-10-18T12:57:34.609Z,485
2022-10-18T12:58:46.661Z,482
2022-10-18T12:59:59.405Z,481
2022-10-18T13:01:01.431Z,480
2022-10-18T13:02:13.892Z,479
2022-10-18T13:03:25.791Z,477
2022-10-18T13:04:38.413Z,477
2022-10-18T13:05:48.795Z,478
2022-10-18T13:06:55.417Z,480
2022-10-18T13:08:28.283Z,478
2022-10-18T13:09:11.396Z,480
2022-10-18T13:10:23.284Z,484
2022-10-18T13:11:35.899Z,488
2022-10-18T13:12:47.951Z,488
2022-10-18T13:13:50.954Z,488
2022-10-18T13:15:24.047Z,489
2022-10-18T13:16:08.383Z,491
2022-10-18T13:17:20.297Z,493
2022-10-18T13:18:32.889Z,496
2022-10-18T13:19:44.785Z,496
2022-10-18T13:20:47.405Z,496
2022-10-18T13:22:09.188Z,493
2022-10-18T13:23:12.469Z,492
2022-10-18T13:24:24.477Z,491
2022-10-18T13:25:27.455Z,490
2022-10-18T13:26:39.386Z,488
2022-10-18T13:27:51.905Z,487
2022-10-18T13:29:33.533Z,487
2022-10-18T13:30:07.072Z,483
2022-10-18T13:31:18.897Z,479
2022-10-18T13:32:31.651Z,480
2022-10-18T13:33:33.877Z,481
2022-10-18T13:34:46.428Z,481
2022-10-18T13:35:58.356Z,479
2022-10-18T13:37:10.941Z,479
2022-10-18T13:38:12.968Z,480
2022-10-18T13:39:25.904Z,479
2022-10-18T13:40:37.895Z,479
2022-10-18T13:41:53.735Z,479
2022-10-18T13:42:57.299Z,482
2022-10-18T13:44:09.920Z,485
2022-10-18T13:45:12.023Z,488
2022-10-18T13:47:14.389Z,488
2022-10-18T13:47:37.175Z,485
2022-10-18T13:48:49.153Z,485
2022-10-18T13:49:54.871Z,483
2022-10-18T13:51:30.385Z,485
2022-10-18T13:52:13.701Z,485
2022-10-18T13:53:25.646Z,485
2022-10-18T13:54:38.454Z,489
2022-10-18T13:55:40.531Z,491
2022-10-18T13:56:53.434Z,490
2022-10-18T13:58:05.286Z,491
2022-10-18T13:59:17.947Z,489
2022-10-18T14:00:20.009Z,488
2022-10-18T14:01:32.981Z,485
2022-10-18T14:02:51.496Z,486
2022-10-18T14:03:58.549Z,485
2022-10-18T14:05:16.634Z,483
2022-10-18T14:06:16.424Z,482
2022-10-18T14:07:18.534Z,482
2022-10-18T14:08:50.950Z,479
2022-10-18T14:09:45.147Z,480
2022-10-18T14:11:08.919Z,483
2022-10-18T14:12:01.305Z,486
2022-10-18T14:13:14.042Z,489
2022-10-18T14:14:45.691Z,492
2022-10-18T14:15:28.908Z,493
2022-10-18T14:16:40.997Z,496
2022-10-18T14:17:53.427Z,498
2022-10-18T14:19:05.336Z,501
2022-10-18T14:20:07.946Z,502
2022-10-18T14:21:21.766Z,502
2022-10-18T14:22:35.310Z,505
2022-10-18T14:23:37.590Z,506
2022-10-18T14:24:50.451Z,510
2022-10-18T14:26:02.352Z,515
2022-10-18T14:27:05.017Z,521
2022-10-18T14:28:16.927Z,535
2022-10-18T14:29:29.477Z,557
2022-10-18T14:30:41.469Z,558
2022-10-18T14:31:44.438Z,557
2022-10-18T14:32:56.322Z,561
2022-10-18T14:34:08.976Z,558
2022-10-18T14:35:32.027Z,564
2022-10-18T14:36:25.433Z,563
2022-10-18T14:37:37.295Z,569
2022-10-18T14:38:49.948Z,575
2022-10-18T14:39:51.997Z,578
2022-10-18T14:41:04.433Z,580
2022-10-18T14:42:16.281Z,582
2022-10-18T14:43:28.922Z,586
2022-10-18T14:44:54.389Z,592
2022-10-18T14:45:48.941Z,597
2022-10-18T14:46:50.880Z,603
2022-10-18T14:48:03.417Z,603
2022-10-18T14:49:15.249Z,606
2022-10-18T14:50:30.604Z,606
2022-10-18T14:51:32.875Z,609
2022-10-18T14:52:45.524Z,612
2022-10-18T14:53:57.356Z,613
2022-10-18T14:54:59.958Z,614
2022-10-18T14:56:11.786Z,616
2022-10-18T14:57:24.430Z,620
2022-10-18T14:58:36.219Z,620
2022-10-18T14:59:38.964Z,622
2022-10-18T15:00:50.887Z,627
2022-10-18T15:02:03.429Z,632
2022-10-18T15:03:15.294Z,638
2022-10-18T15:04:17.984Z,639
2022-10-18T15:05:29.892Z,642
2022-10-18T15:06:42.451Z,642
2022-10-18T15:07:54.323Z,643
2022-10-18T15:08:56.939Z,644
2022-10-18T15:10:08.793Z,646
2022-10-18T15:11:21.449Z,641
2022-10-18T15:12:36.937Z,643
2022-10-18T15:13:43.949Z,643
2022-10-18T15:14:45.922Z,644
2022-10-18T15:15:58.478Z,648
2022-10-18T15:17:10.366Z,649
2022-10-18T15:18:23.114Z,647
2022-10-18T15:19:25.290Z,648
2022-10-18T15:20:38.082Z,649
2022-10-18T15:21:51.818Z,648
2022-10-18T15:22:56.442Z,649
2022-10-18T15:24:08.306Z,652
2022-10-18T15:25:20.963Z,651
2022-10-18T15:26:22.983Z,653
2022-10-18T15:27:35.982Z,652
2022-10-18T15:28:48.202Z,648
2022-10-18T15:30:10.939Z,648
2022-10-18T15:31:03.086Z,648
2022-10-18T15:32:15.957Z,649
2022-10-18T15:33:28.017Z,650
2022-10-18T15:34:40.941Z,651
2022-10-18T15:35:42.896Z,650
2022-10-18T15:36:55.463Z,651
2022-10-18T15:38:07.325Z,654
2022-10-18T15:39:19.970Z,657
2022-10-18T15:40:21.988Z,658
2022-10-18T15:41:34.488Z,661
2022-10-18T15:42:46.330Z,665
2022-10-18T15:43:58.967Z,669
2022-10-18T15:45:01.006Z,675
2022-10-18T15:46:13.468Z,677
2022-10-18T15:47:54.906Z,685
2022-10-18T15:48:37.981Z,690
2022-10-18T15:49:39.909Z,698
2022-10-18T15:50:52.930Z,704
2022-10-18T15:52:24.421Z,710